Time;durP1;ratioP1;P1;durP2;ratioP2;P2;SDS_P1;SDS_P2;PMS_P1;PMS_P2;Temp;Humidity;BMP_temperature;BMP_pressure;BME280_temperature;BME280_humidity;BME280_pressure;Samples;Min_cycle;Max_cycle;Signal;HPM_P1;HPM_P2
2022/03/16 00:02:10;;;;;;;35.10;21.30;;;;;;;8.63;76.79;102250.66;5057428;28;20423;-69
2022/03/16 00:04:35;;;;;;;35.50;22.70;;;;;;;8.57;77.42;102246.09;5057408;28;20424;-68
2022/03/16 00:07:01;;;;;;;36.73;20.83;;;;;;;8.83;76.78;102254.97;5057278;28;20435;-68
2022/03/16 00:09:26;;;;;;;34.70;23.37;;;;;;;8.83;76.55;102252.38;5057286;28;20192;-69
2022/03/16 00:11:52;;;;;;;34.57;22.27;;;;;;;8.97;75.92;102254.63;5057510;28;20562;-69
2022/03/16 00:14:17;;;;;;;33.53;24.53;;;;;;;8.91;76.20;102263.97;5057800;28;20174;-68
2022/03/16 00:16:43;;;;;;;34.83;23.97;;;;;;;8.76;76.27;102268.53;5057335;28;20575;-70
2022/03/16 00:19:08;;;;;;;34.43;21.50;;;;;;;8.66;76.81;102272.47;5057320;28;20188;-69
2022/03/16 00:21:34;;;;;;;32.17;22.53;;;;;;;8.68;76.49;102268.22;5057864;28;20252;-70
2022/03/16 00:24:00;;;;;;;31.07;20.33;;;;;;;8.82;76.49;102274.00;5057125;28;20446;-68
2022/03/16 00:26:25;;;;;;;28.23;21.53;;;;;;;8.93;75.90;102269.25;5057515;28;20420;-69
2022/03/16 00:28:51;;;;;;;38.37;21.50;;;;;;;8.86;75.87;102268.13;5060154;28;20855;-69
2022/03/16 00:31:16;;;;;;;36.07;23.40;;;;;;;8.73;76.39;102276.22;5061007;28;20185;-67
2022/03/16 00:33:41;;;;;;;33.80;22.40;;;;;;;9.10;76.46;102278.59;5061177;28;20202;-67
2022/03/16 00:36:07;;;;;;;35.63;21.50;;;;;;;8.90;75.84;102284.72;5061365;28;20205;-66
2022/03/16 00:38:32;;;;;;;30.20;22.00;;;;;;;8.87;76.07;102282.00;5061014;28;20443;-67
2022/03/16 00:40:57;;;;;;;27.57;21.07;;;;;;;8.81;76.09;102282.63;5060112;28;20170;-67
2022/03/16 00:43:23;;;;;;;32.83;21.60;;;;;;;8.85;75.81;102278.44;5061265;28;20530;-68
2022/03/16 00:45:48;;;;;;;34.90;22.10;;;;;;;8.96;75.47;102279.78;5060143;28;20192;-67
2022/03/16 00:48:13;;;;;;;35.50;22.53;;;;;;;8.85;75.76;102284.53;5060806;28;20174;-67
2022/03/16 00:50:39;;;;;;;31.73;21.20;;;;;;;8.60;77.25;102287.81;5061028;28;20405;-66
2022/03/16 00:53:04;;;;;;;35.83;22.27;;;;;;;8.74;77.15;102291.88;5058220;28;20174;-67
2022/03/16 00:55:30;;;;;;;35.03;22.50;;;;;;;8.82;76.99;102287.03;5044146;28;20214;-67
2022/03/16 00:57:55;;;;;;;27.30;20.00;;;;;;;8.89;76.17;102288.13;5040634;28;20187;-67
2022/03/16 01:00:20;;;;;;;30.13;19.90;;;;;;;8.87;76.32;102295.00;5040564;28;20238;-67
2022/03/16 01:02:45;;;;;;;29.40;20.80;;;;;;;8.92;76.07;102286.56;5040617;28;20202;-68
2022/03/16 01:05:11;;;;;;;30.07;21.07;;;;;;;8.96;76.52;102292.78;5040881;28;20200;-68
2022/03/16 01:07:36;;;;;;;30.03;20.53;;;;;;;9.15;75.96;102291.81;5054584;28;20201;-67
2022/03/16 01:10:05;;;;;;;31.27;21.23;;;;;;;9.02;75.54;102295.63;5060563;28;20203;-68
2022/03/16 01:12:31;;;;;;;27.63;20.40;;;;;;;8.81;76.29;102300.84;5060889;28;20174;-68
2022/03/16 01:14:56;;;;;;;27.37;19.90;;;;;;;8.74;76.56;102299.69;5059964;28;20732;-69
2022/03/16 01:17:21;;;;;;;29.37;19.07;;;;;;;8.53;77.20;102309.16;5060196;28;20218;-68
2022/03/16 01:19:47;;;;;;;33.67;20.53;;;;;;;8.63;76.58;102300.91;5060472;28;20170;-68
2022/03/16 01:22:12;;;;;;;27.40;20.63;;;;;;;8.64;76.90;102307.03;5060237;28;20535;-68
2022/03/16 01:24:37;;;;;;;25.20;18.63;;;;;;;8.84;76.87;102300.97;5060117;28;20174;-68
2022/03/16 01:27:03;;;;;;;28.23;21.03;;;;;;;8.89;76.35;102304.66;5059730;28;20170;-68
2022/03/16 01:29:28;;;;;;;28.30;20.67;;;;;;;8.62;76.90;102312.16;5059866;28;20420;-67
2022/03/16 01:31:54;;;;;;;26.60;19.40;;;;;;;8.87;76.83;102310.59;5042196;28;20193;-68
2022/03/16 01:34:20;;;;;;;33.20;22.10;;;;;;;8.92;76.81;102309.97;5060356;28;20174;-67
2022/03/16 01:36:45;;;;;;;34.07;21.60;;;;;;;8.94;76.42;102315.22;5059921;28;20219;-68
2022/03/16 01:39:11;;;;;;;29.20;20.53;;;;;;;9.05;76.48;102318.28;5059610;28;20265;-68
2022/03/16 01:41:36;;;;;;;31.30;21.37;;;;;;;8.87;76.99;102326.22;5060195;28;20539;-66
2022/03/16 01:44:02;;;;;;;29.40;21.17;;;;;;;8.89;76.19;102320.25;5059912;28;20247;-67
2022/03/16 01:46:28;;;;;;;32.20;21.57;;;;;;;8.80;76.25;102321.59;5059793;28;20606;-68
2022/03/16 01:48:53;;;;;;;32.70;22.50;;;;;;;8.70;76.18;102321.19;5059670;28;20412;-67
2022/03/16 01:51:20;;;;;;;32.87;22.43;;;;;;;8.68;77.08;102324.53;5059753;28;20173;-67
2022/03/16 01:53:45;;;;;;;35.47;21.70;;;;;;;8.60;76.22;102329.41;5057963;28;20536;-68
2022/03/16 01:56:11;;;;;;;33.83;21.10;;;;;;;8.43;76.62;102319.13;5041540;28;20456;-67
2022/03/16 01:58:36;;;;;;;35.50;23.60;;;;;;;8.99;75.22;102318.91;5039569;28;20539;-68
2022/03/16 02:01:01;;;;;;;37.10;23.47;;;;;;;9.08;75.02;102321.91;5039369;28;20238;-69
2022/03/16 02:03:27;;;;;;;33.73;24.33;;;;;;;9.16;75.45;102321.31;5039759;28;20170;-67
2022/03/16 02:05:54;;;;;;;36.17;23.77;;;;;;;9.05;75.55;102319.19;5039271;28;20175;-69
2022/03/16 02:08:19;;;;;;;38.07;24.90;;;;;;;8.86;75.41;102327.03;5039591;28;20428;-68
2022/03/16 02:10:45;;;;;;;32.00;24.10;;;;;;;9.04;75.21;102329.53;5039714;28;20429;-67
2022/03/16 02:13:11;;;;;;;36.73;24.87;;;;;;;9.20;74.60;102331.94;5039449;28;20197;-70
2022/03/16 02:15:39;;;;;;;33.67;23.53;;;;;;;9.27;74.26;102328.75;5038421;28;20210;-68
2022/03/16 02:18:05;;;;;;;31.67;23.67;;;;;;;9.30;74.79;102329.72;5039407;28;20452;-66
2022/03/16 02:20:31;;;;;;;32.10;25.10;;;;;;;8.95;75.13;102330.03;5039280;28;20409;-68
2022/03/16 02:22:58;;;;;;;29.30;23.17;;;;;;;8.86;75.51;102334.81;5038145;28;20417;-69
2022/03/16 02:25:25;;;;;;;36.53;24.63;;;;;;;8.70;76.37;102338.47;5039374;28;20167;-68
2022/03/16 02:27:52;;;;;;;30.73;22.07;;;;;;;8.80;76.46;102337.19;5038909;28;20421;-68
2022/03/16 02:30:21;;;;;;;32.40;22.70;;;;;;;8.81;75.92;102334.66;5039018;28;20688;-68
2022/03/16 02:32:49;;;;;;;31.00;22.20;;;;;;;8.89;76.61;102335.84;5039562;28;20511;-68
2022/03/16 02:35:15;;;;;;;32.53;21.57;;;;;;;7.72;78.96;102347.06;5038899;28;20666;-68
2022/03/16 02:37:40;;;;;;;30.33;21.63;;;;;;;7.61;81.12;102352.59;5038875;28;20417;-68
2022/03/16 02:40:22;;;;;;;29.03;21.63;;;;;;;8.16;79.96;102339.59;5039057;28;20174;-69
2022/03/16 02:42:48;;;;;;;32.13;22.33;;;;;;;8.53;78.93;102333.44;5053441;28;20502;-69
2022/03/16 02:45:14;;;;;;;29.40;20.70;;;;;;;8.64;77.28;102333.91;5058734;28;20412;-70
2022/03/16 02:47:42;;;;;;;30.53;21.83;;;;;;;8.65;77.39;102340.00;5058592;28;20177;-69
2022/03/16 02:50:08;;;;;;;30.30;22.40;;;;;;;8.84;76.84;102326.97;5057355;28;20178;-68
2022/03/16 02:52:33;;;;;;;34.33;23.03;;;;;;;8.54;77.76;102336.94;5058763;28;20412;-68
2022/03/16 02:54:59;;;;;;;27.00;21.80;;;;;;;7.81;80.22;102345.75;5058255;28;20723;-68
2022/03/16 02:57:24;;;;;;;35.07;21.47;;;;;;;7.58;81.31;102338.63;5058134;28;20296;-67
2022/03/16 02:59:49;;;;;;;29.97;22.10;;;;;;;7.96;80.13;102335.19;5058630;28;20438;-68
2022/03/16 03:02:15;;;;;;;35.90;21.67;;;;;;;8.31;78.48;102325.47;5058487;28;20264;-68
2022/03/16 03:04:40;;;;;;;31.33;22.20;;;;;;;7.95;79.92;102331.69;5058460;28;20288;-68
2022/03/16 03:07:06;;;;;;;26.37;20.80;;;;;;;8.29;78.31;102337.53;5058782;28;20215;-69
2022/03/16 03:09:31;;;;;;;30.10;21.33;;;;;;;7.04;81.03;102348.13;5058168;28;20174;-68
2022/03/16 03:11:59;;;;;;;38.80;23.00;;;;;;;7.42;81.88;102344.78;5058158;28;20419;-68
2022/03/16 03:14:27;;;;;;;27.80;20.90;;;;;;;7.67;79.81;102343.41;5058333;28;20424;-68
2022/03/16 03:16:52;;;;;;;30.43;21.50;;;;;;;8.46;77.74;102344.41;5058056;28;20546;-68
2022/03/16 03:19:18;;;;;;;31.40;20.67;;;;;;;8.20;76.87;102341.50;5058052;28;20515;-68
2022/03/16 03:21:43;;;;;;;31.67;21.77;;;;;;;7.99;78.07;102340.50;5058374;28;20539;-68
2022/03/16 03:24:08;;;;;;;29.00;20.80;;;;;;;8.18;77.66;102335.31;5058000;28;20174;-68
2022/03/16 03:26:34;;;;;;;35.03;21.60;;;;;;;7.48;80.26;102353.69;5057815;28;20239;-67
2022/03/16 03:28:59;;;;;;;33.00;23.43;;;;;;;7.67;80.31;102351.19;5058073;28;20176;-67
2022/03/16 03:31:24;;;;;;;8.37;6.80;;;;;;;12.38;76.38;102336.75;5057690;28;20442;-53
2022/03/16 03:33:50;;;;;;;30.80;19.97;;;;;;;10.78;67.35;102337.84;5057946;28;20219;-68
2022/03/16 03:36:15;;;;;;;28.00;19.60;;;;;;;9.26;70.51;102339.97;5058305;28;20201;-67
2022/03/16 03:38:40;;;;;;;30.43;20.13;;;;;;;8.95;72.33;102350.81;5057727;28;20177;-68
2022/03/16 03:41:06;;;;;;;28.00;19.50;;;;;;;8.26;74.81;102352.16;5057758;28;20203;-68
2022/03/16 03:43:31;;;;;;;28.87;19.27;;;;;;;8.07;75.43;102350.41;5058021;28;20173;-68
2022/03/16 03:45:56;;;;;;;30.20;19.60;;;;;;;7.48;78.26;102357.19;5057771;28;20510;-68
2022/03/16 03:48:22;;;;;;;28.53;20.23;;;;;;;7.38;79.01;102360.16;5057499;28;20174;-68
2022/03/16 03:50:47;;;;;;;32.63;19.90;;;;;;;7.36;79.75;102365.28;5058058;28;20248;-68
2022/03/16 03:53:12;;;;;;;28.60;20.60;;;;;;;6.84;80.20;102370.44;5057762;28;20173;-69
2022/03/16 03:55:38;;;;;;;28.60;20.60;;;;;;;7.64;78.87;102358.81;5054807;28;20531;-67
2022/03/16 03:58:03;;;;;;;28.77;20.30;;;;;;;7.67;78.62;102360.66;5038255;28;20174;-66
2022/03/16 04:00:28;;;;;;;26.63;18.73;;;;;;;7.79;77.01;102361.22;5037707;28;20367;-68
2022/03/16 04:02:54;;;;;;;32.20;19.03;;;;;;;8.02;76.15;102354.50;5038879;28;20174;-67
2022/03/16 04:05:20;;;;;;;31.47;19.00;;;;;;;7.95;75.70;102355.06;5044515;28;20181;-67
2022/03/16 04:07:46;;;;;;;35.17;20.20;;;;;;;8.31;74.70;102349.78;5061660;28;20169;-68
2022/03/16 04:10:11;;;;;;;28.53;18.63;;;;;;;8.04;74.75;102352.00;5061503;28;20420;-68
2022/03/16 04:12:37;;;;;;;35.57;19.47;;;;;;;7.59;75.50;102360.31;5061899;28;20219;-67
2022/03/16 04:15:04;;;;;;;31.53;18.60;;;;;;;7.44;77.23;102362.16;5057655;28;20186;-67
2022/03/16 04:17:29;;;;;;;29.17;18.77;;;;;;;6.61;79.51;102359.75;5041365;28;20432;-68
2022/03/16 04:19:54;;;;;;;30.87;17.50;;;;;;;6.48;81.08;102367.69;5056227;28;20438;-67
2022/03/16 04:22:20;;;;;;;27.10;18.27;;;;;;;7.11;79.83;102367.47;5061101;28;20174;-68
2022/03/16 04:24:45;;;;;;;30.27;17.83;;;;;;;7.76;77.28;102358.50;5061196;28;20190;-68
2022/03/16 04:27:10;;;;;;;31.00;16.83;;;;;;;7.95;75.16;102359.38;5062110;28;20263;-68
2022/03/16 04:29:35;;;;;;;28.03;18.13;;;;;;;7.50;76.38;102362.47;5061364;28;20189;-68
2022/03/16 04:32:01;;;;;;;31.23;17.93;;;;;;;7.76;75.90;102364.56;5061838;28;20181;-68
2022/03/16 04:34:26;;;;;;;26.03;17.03;;;;;;;7.81;75.02;102362.22;5061769;28;20193;-68
2022/03/16 04:36:52;;;;;;;29.13;18.67;;;;;;;7.95;74.54;102354.19;5061359;28;20213;-67
2022/03/16 04:39:17;;;;;;;29.37;18.03;;;;;;;7.91;73.78;102354.03;5061154;28;20448;-68
2022/03/16 04:41:42;;;;;;;27.13;17.70;;;;;;;8.01;74.02;102351.84;5061520;28;20173;-68
2022/03/16 04:44:08;;;;;;;27.07;16.67;;;;;;;7.80;74.00;102349.16;5061322;28;20165;-68
2022/03/16 04:46:34;;;;;;;30.83;17.00;;;;;;;7.58;74.31;102351.63;5061093;28;20184;-67
2022/03/16 04:48:59;;;;;;;28.03;18.30;;;;;;;7.53;74.18;102349.63;5061565;28;20681;-68
2022/03/16 04:51:24;;;;;;;31.07;16.53;;;;;;;7.58;74.37;102340.34;5060961;28;20192;-67
2022/03/16 04:53:50;;;;;;;27.77;16.33;;;;;;;7.53;74.34;102339.25;5052319;28;20457;-67
2022/03/16 04:56:15;;;;;;;26.13;16.30;;;;;;;7.14;75.87;102339.06;5041464;28;20209;-67
2022/03/16 04:58:40;;;;;;;26.57;15.90;;;;;;;6.70;77.03;102349.88;5040840;28;20178;-67
2022/03/16 05:01:06;;;;;;;22.70;15.00;;;;;;;7.28;75.78;102342.34;5039965;28;20639;-66
2022/03/16 05:03:31;;;;;;;26.50;16.13;;;;;;;6.44;77.68;102347.63;5041129;28;20174;-67
2022/03/16 05:05:56;;;;;;;25.00;16.20;;;;;;;7.03;77.11;102347.19;5040795;28;20631;-66
2022/03/16 05:08:22;;;;;;;27.23;16.30;;;;;;;7.14;76.19;102350.31;5040555;28;20443;-67
2022/03/16 05:10:47;;;;;;;24.43;14.97;;;;;;;7.95;74.21;102352.47;5041215;28;20176;-67
2022/03/16 05:13:12;;;;;;;25.93;16.37;;;;;;;7.92;72.84;102347.13;5040054;28;20178;-66
2022/03/16 05:15:37;;;;;;;30.80;16.97;;;;;;;7.64;73.00;102355.31;5040333;28;20479;-67
2022/03/16 05:18:03;;;;;;;21.20;14.20;;;;;;;6.91;75.00;102375.09;5040712;28;20178;-67
2022/03/16 05:20:28;;;;;;;88.20;45.23;;;;;;;7.08;76.40;102370.78;5040477;28;20181;-67
2022/03/16 05:22:54;;;;;;;33.67;19.80;;;;;;;7.54;75.86;102377.34;5040382;28;20188;-68
2022/03/16 05:25:27;;;;;;;34.67;17.83;;;;;;;7.70;74.15;102374.69;5040876;28;20162;-68
2022/03/16 05:27:53;;;;;;;29.40;16.90;;;;;;;8.14;72.93;102380.16;5040258;28;20179;-68
2022/03/16 05:30:20;;;;;;;37.23;19.97;;;;;;;7.99;73.22;102382.06;5040421;28;20417;-68
2022/03/16 05:32:45;;;;;;;28.40;16.80;;;;;;;7.97;72.52;102383.69;5040125;28;20418;-67
2022/03/16 05:35:12;;;;;;;24.10;16.13;;;;;;;7.99;73.09;102385.53;5040320;28;20428;-67
2022/03/16 05:37:38;;;;;;;29.93;18.03;;;;;;;7.98;72.36;102391.53;5040412;28;20171;-68
2022/03/16 05:40:06;;;;;;;32.07;17.17;;;;;;;7.88;72.81;102389.34;5040435;28;20417;-68
2022/03/16 05:42:31;;;;;;;25.90;16.27;;;;;;;7.30;73.83;102408.19;5040110;28;20420;-67
2022/03/16 05:44:56;;;;;;;29.93;17.33;;;;;;;7.83;73.38;102391.72;5040412;28;20410;-67
2022/03/16 05:47:22;;;;;;;28.70;17.60;;;;;;;7.16;74.12;102408.38;5039978;28;20166;-67
2022/03/16 05:49:51;;;;;;;28.40;17.40;;;;;;;7.38;74.78;102410.31;5040041;28;20257;-68
2022/03/16 05:52:17;;;;;;;25.93;17.27;;;;;;;8.06;73.43;102405.81;5040438;28;20170;-68
2022/03/16 05:54:42;;;;;;;30.73;16.70;;;;;;;8.53;71.22;102408.81;5039744;28;20467;-67
2022/03/16 05:57:08;;;;;;;27.20;18.27;;;;;;;8.36;70.82;102413.25;5039796;28;20463;-68
2022/03/16 05:59:43;;;;;;;32.93;19.63;;;;;;;8.25;70.66;102411.84;5040019;28;20197;-67
2022/03/16 06:02:09;;;;;;;27.77;18.67;;;;;;;8.37;70.95;102417.59;5047425;28;20216;-65
2022/03/16 06:04:35;;;;;;;30.17;18.57;;;;;;;8.42;70.92;102416.09;5057909;28;20447;-67
2022/03/16 06:07:01;;;;;;;25.83;18.00;;;;;;;8.45;70.30;102414.47;5059335;28;20420;-67
2022/03/16 06:09:26;;;;;;;28.10;18.10;;;;;;;8.80;69.64;102412.59;5058689;28;20424;-67
2022/03/16 06:11:51;;;;;;;26.07;17.57;;;;;;;8.69;70.23;102420.81;5059166;28;20256;-66
2022/03/16 06:14:17;;;;;;;29.53;18.27;;;;;;;8.49;70.73;102426.81;5059501;28;20178;-67
2022/03/16 06:16:44;;;;;;;28.17;18.60;;;;;;;8.71;71.11;102428.66;5059183;28;20205;-67
2022/03/16 06:19:09;;;;;;;29.03;19.30;;;;;;;8.21;71.76;102431.63;5058916;28;20197;-67
2022/03/16 06:21:34;;;;;;;29.07;19.20;;;;;;;8.13;72.60;102430.34;5059316;28;20416;-67
2022/03/16 06:24:00;;;;;;;31.10;20.07;;;;;;;8.53;71.34;102431.34;5059263;28;20170;-66
2022/03/16 06:26:25;;;;;;;32.40;19.57;;;;;;;8.43;71.11;102428.28;5058151;28;20204;-67
2022/03/16 06:28:50;;;;;;;27.20;19.63;;;;;;;8.62;71.26;102428.25;5058414;28;20173;-66
2022/03/16 06:31:16;;;;;;;29.70;18.80;;;;;;;8.69;70.93;102431.19;5058792;28;20192;-66
2022/03/16 06:33:41;;;;;;;30.57;19.60;;;;;;;9.66;68.70;102421.41;5058937;28;20238;-65
2022/03/16 06:36:06;;;;;;;28.37;19.20;;;;;;;11.22;64.24;102408.94;5059088;28;20201;-66
2022/03/16 06:38:32;;;;;;;25.57;17.10;;;;;;;11.67;62.49;102419.97;5058539;28;20173;-66
2022/03/16 06:40:57;;;;;;;22.77;15.30;;;;;;;13.02;57.29;102406.50;5058617;28;20239;-68
2022/03/16 06:43:22;;;;;;;24.60;17.23;;;;;;;13.00;56.37;102411.66;5054036;28;20177;-69
2022/03/16 06:45:48;;;;;;;22.33;15.30;;;;;;;13.89;53.71;102414.75;5056859;28;20185;-68
2022/03/16 06:48:13;;;;;;;19.57;16.40;;;;;;;13.84;53.54;102416.38;5057961;28;20208;-69
2022/03/16 06:50:38;;;;;;;21.47;16.40;;;;;;;13.05;55.79;102423.16;5050626;28;20181;-68
2022/03/16 06:53:03;;;;;;;19.40;16.27;;;;;;;11.33;61.30;102432.81;5057508;28;20178;-66
2022/03/16 06:55:29;;;;;;;26.03;17.30;;;;;;;10.37;62.90;102438.97;5057581;28;20219;-68
2022/03/16 06:57:54;;;;;;;22.90;17.57;;;;;;;10.07;64.91;102440.41;5057696;28;20527;-68
2022/03/16 07:00:20;;;;;;;23.00;17.50;;;;;;;10.37;65.32;102441.56;5057606;28;20221;-68
2022/03/16 07:02:56;;;;;;;24.13;17.47;;;;;;;10.13;65.43;102444.09;5053180;28;20526;-67
2022/03/16 07:05:25;;;;;;;21.10;16.47;;;;;;;10.19;66.20;102449.50;5058054;28;20164;-69
2022/03/16 07:07:50;;;;;;;24.70;17.33;;;;;;;10.76;64.29;102447.38;5057614;28;20417;-69
2022/03/16 07:10:16;;;;;;;28.77;18.57;;;;;;;10.13;65.24;102446.69;5057440;28;20419;-68
2022/03/16 07:12:41;;;;;;;23.40;16.90;;;;;;;10.43;64.21;102449.59;5057463;28;20252;-67
2022/03/16 07:15:07;;;;;;;24.40;17.93;;;;;;;10.70;63.48;102448.84;5057814;28;20178;-68
2022/03/16 07:17:33;;;;;;;26.10;17.30;;;;;;;9.66;66.32;102452.69;5057041;28;20201;-68
2022/03/16 07:19:58;;;;;;;24.37;17.57;;;;;;;9.73;65.44;102453.81;5057580;28;20845;-67
2022/03/16 07:22:23;;;;;;;23.37;16.23;;;;;;;9.31;67.46;102461.59;5057936;28;20174;-67
2022/03/16 07:24:48;;;;;;;23.50;16.03;;;;;;;9.89;66.05;102458.81;5056805;28;20189;-67
2022/03/16 07:27:14;;;;;;;23.13;15.77;;;;;;;9.87;66.42;102468.25;5038264;28;20169;-68
2022/03/16 07:29:39;;;;;;;24.10;16.80;;;;;;;10.15;65.28;102466.78;5050750;28;20188;-68
2022/03/16 07:32:05;;;;;;;22.50;16.93;;;;;;;10.67;64.06;102465.28;5057155;28;20177;-68
2022/03/16 07:34:31;;;;;;;23.67;17.00;;;;;;;10.10;65.19;102460.47;5057543;28;20235;-67
2022/03/16 07:36:56;;;;;;;26.60;16.43;;;;;;;9.90;65.66;102468.41;5057256;28;20512;-67
2022/03/16 07:39:22;;;;;;;27.40;17.20;;;;;;;10.28;65.54;102460.31;5056659;28;20486;-68
2022/03/16 07:41:48;;;;;;;23.83;17.10;;;;;;;10.56;64.77;102466.63;5040529;28;20201;-68
2022/03/16 07:44:14;;;;;;;23.50;16.80;;;;;;;10.18;66.20;102469.50;5056363;28;20244;-68
2022/03/16 07:46:41;;;;;;;23.00;17.40;;;;;;;9.91;67.40;102470.16;5056693;28;20268;-68
2022/03/16 07:49:06;;;;;;;31.47;18.23;;;;;;;9.46;68.47;102471.75;5058408;28;20431;-67
2022/03/16 07:51:32;;;;;;;23.90;17.67;;;;;;;10.20;66.22;102466.94;5056961;28;20435;-67
2022/03/16 07:53:57;;;;;;;23.57;17.10;;;;;;;10.03;66.31;102463.69;5056560;28;20186;-69
2022/03/16 07:56:23;;;;;;;23.30;16.43;;;;;;;8.41;70.96;102473.22;5056522;28;20482;-67
2022/03/16 07:58:48;;;;;;;23.67;16.67;;;;;;;8.71;70.43;102476.38;5040139;28;20178;-67
2022/03/16 08:01:14;;;;;;;23.53;17.27;;;;;;;8.80;71.40;102490.63;5053624;28;20225;-65
2022/03/16 08:03:40;;;;;;;28.03;18.73;;;;;;;9.74;69.54;102474.72;5052450;28;20204;-67
2022/03/16 08:06:05;;;;;;;24.87;15.83;;;;;;;9.49;67.69;102471.91;5054441;28;20432;-69
2022/03/16 08:08:31;;;;;;;19.67;15.70;;;;;;;8.80;70.45;102483.69;5056874;28;20177;-66
2022/03/16 08:10:58;;;;;;;25.10;16.07;;;;;;;9.09;69.12;102476.28;5057249;28;20176;-66
2022/03/16 08:13:24;;;;;;;27.13;16.90;;;;;;;9.64;68.55;102477.75;5056550;28;20456;-67
2022/03/16 08:15:49;;;;;;;24.33;15.50;;;;;;;10.06;67.50;102482.03;5056397;28;20902;-67
2022/03/16 08:18:14;;;;;;;23.53;15.73;;;;;;;10.56;64.57;102487.47;5056623;28;20197;-65
2022/03/16 08:20:40;;;;;;;22.20;14.30;;;;;;;10.67;63.46;102477.44;5056122;28;20185;-68
2022/03/16 08:23:05;;;;;;;23.40;16.17;;;;;;;10.78;63.04;102474.41;5056092;28;20198;-68
2022/03/16 08:25:30;;;;;;;20.60;16.20;;;;;;;10.71;63.12;102477.59;5056459;28;20170;-68
2022/03/16 08:27:58;;;;;;;19.80;14.77;;;;;;;10.83;63.00;102478.91;5056817;28;20256;-67
2022/03/16 08:30:24;;;;;;;20.57;14.73;;;;;;;10.73;62.72;102477.66;5053349;28;20207;-69
2022/03/16 08:32:49;;;;;;;21.40;14.53;;;;;;;10.93;62.04;102481.91;5056806;28;20444;-68
2022/03/16 08:35:15;;;;;;;20.60;13.83;;;;;;;10.24;63.52;102494.91;5055719;28;20185;-68
2022/03/16 08:37:40;;;;;;;21.63;13.67;;;;;;;10.48;62.21;102494.13;5056728;28;20177;-68
2022/03/16 08:40:07;;;;;;;18.47;14.23;;;;;;;10.62;62.92;102498.13;5055851;28;20497;-68
2022/03/16 08:42:32;;;;;;;20.73;13.90;;;;;;;10.76;61.88;102488.22;5056270;28;20178;-69
2022/03/16 08:44:58;;;;;;;29.87;16.27;;;;;;;10.74;62.49;102496.00;5056227;28;20702;-69
2022/03/16 08:47:23;;;;;;;19.73;14.27;;;;;;;10.53;62.43;102503.00;5057043;28;20188;-69
2022/03/16 08:49:51;;;;;;;17.50;13.27;;;;;;;10.60;62.28;102500.69;5059723;28;20592;-68
2022/03/16 08:52:16;;;;;;;26.03;13.87;;;;;;;9.76;63.46;102501.69;5060967;28;20554;-67
2022/03/16 08:54:42;;;;;;;22.33;16.00;;;;;;;10.89;62.25;102492.16;5060978;28;20408;-66
2022/03/16 08:57:09;;;;;;;19.23;14.70;;;;;;;10.58;61.99;102494.53;5060614;28;20466;-67
2022/03/16 08:59:34;;;;;;;18.23;14.00;;;;;;;10.55;62.87;102497.03;5060509;28;20595;-66
2022/03/16 09:02:00;;;;;;;16.23;12.97;;;;;;;10.75;61.27;102492.53;5060342;28;20459;-66
2022/03/16 09:04:25;;;;;;;22.10;14.57;;;;;;;10.95;61.55;102492.41;5060649;28;20188;-66
2022/03/16 09:06:50;;;;;;;18.90;13.57;;;;;;;10.73;61.63;102508.97;5060945;28;20158;-66
2022/03/16 09:09:16;;;;;;;20.13;13.50;;;;;;;11.23;60.26;102515.16;5060504;28;20184;-65
2022/03/16 09:11:41;;;;;;;21.30;14.90;;;;;;;11.17;61.14;102508.81;5060709;28;20260;-65
2022/03/16 09:14:06;;;;;;;21.00;14.60;;;;;;;10.70;62.50;102514.97;5060440;28;20177;-66
2022/03/16 09:16:32;;;;;;;18.47;14.13;;;;;;;10.70;62.48;102516.69;5059963;28;20287;-65
2022/03/16 09:18:57;;;;;;;20.60;15.20;;;;;;;10.64;63.00;102513.84;5060342;28;20295;-67
2022/03/16 09:21:25;;;;;;;20.40;14.60;;;;;;;11.87;59.79;102514.69;5060661;28;20790;-67
2022/03/16 09:23:52;;;;;;;19.03;13.90;;;;;;;11.56;58.54;102511.94;5060576;28;20182;-66
2022/03/16 09:26:17;;;;;;;19.63;13.57;;;;;;;10.82;60.57;102503.22;5059974;28;20834;-66
2022/03/16 09:28:44;;;;;;;19.33;14.60;;;;;;;10.60;62.27;102513.72;5058949;28;20440;-66
2022/03/16 09:31:10;;;;;;;17.63;13.67;;;;;;;11.38;60.69;102517.41;5059920;28;20184;-67
2022/03/16 09:33:35;;;;;;;18.20;14.70;;;;;;;12.74;56.65;102518.28;5059131;28;20394;-67
2022/03/16 09:36:08;;;;;;;16.50;13.40;;;;;;;12.21;56.53;102515.81;5060555;28;20458;-66
2022/03/16 09:38:34;;;;;;;19.23;14.17;;;;;;;12.84;55.61;102525.56;5060158;28;20253;-67
2022/03/16 09:41:01;;;;;;;15.90;13.30;;;;;;;12.90;54.32;102514.38;5060163;28;20658;-67
2022/03/16 09:43:26;;;;;;;16.43;12.90;;;;;;;12.52;55.15;102527.22;5059951;28;20420;-67
2022/03/16 09:45:55;;;;;;;17.60;13.47;;;;;;;12.53;55.60;102528.97;5060004;28;20416;-67
2022/03/16 09:48:23;;;;;;;17.60;13.30;;;;;;;12.73;55.35;102527.88;5060265;28;20172;-67
2022/03/16 09:50:48;;;;;;;19.47;13.80;;;;;;;12.67;54.79;102532.91;5059836;28;20445;-67
2022/03/16 09:53:15;;;;;;;18.53;13.37;;;;;;;12.06;56.10;102538.00;5060010;28;20416;-67
2022/03/16 09:55:41;;;;;;;20.37;12.97;;;;;;;10.89;59.26;102541.72;5059995;28;20209;-67
2022/03/16 09:58:06;;;;;;;20.20;13.27;;;;;;;11.35;59.35;102542.53;5054825;28;20482;-66
2022/03/16 10:00:31;;;;;;;22.93;13.90;;;;;;;11.55;59.25;102543.22;5059270;28;20276;-67
2022/03/16 10:03:02;;;;;;;18.33;12.10;;;;;;;12.24;56.54;102542.03;5059774;28;20165;-67
2022/03/16 10:05:29;;;;;;;15.43;11.83;;;;;;;11.59;58.34;102540.75;5059602;28;20173;-68
2022/03/16 10:07:54;;;;;;;15.37;12.50;;;;;;;12.22;57.26;102542.00;5059297;28;20416;-66
2022/03/16 10:13:14;;;;;;;13.90;12.20;;;;;;;14.10;51.99;102543.75;5059408;28;20590;-66
2022/03/16 10:15:39;;;;;;;15.43;11.80;;;;;;;11.74;56.31;102548.22;5059248;28;20513;-66
2022/03/16 10:18:05;;;;;;;16.73;12.07;;;;;;;12.14;56.49;102551.31;5058959;28;20161;-67
2022/03/16 10:20:35;;;;;;;13.37;12.00;;;;;;;13.02;53.61;102538.28;5059025;28;20547;-66
2022/03/16 10:23:20;;;;;;;19.33;12.57;;;;;;;12.42;54.28;102540.03;5059308;28;20394;-67
2022/03/16 10:25:51;;;;;;;18.87;12.33;;;;;;;12.58;55.48;102548.31;5059156;28;20391;-67
2022/03/16 10:28:23;;;;;;;16.93;12.80;;;;;;;12.58;54.22;102535.25;5058877;28;20480;-67
2022/03/16 10:30:56;;;;;;;16.87;12.50;;;;;;;13.90;51.93;102531.91;5058951;28;20401;-67
2022/03/16 10:33:30;;;;;;;14.10;12.17;;;;;;;14.21;50.43;102525.63;5058602;28;20753;-66
2022/03/16 10:35:56;;;;;;;12.63;10.23;;;;;;;13.67;50.83;102529.56;5058526;28;20720;-68
2022/03/16 10:38:22;;;;;;;13.73;9.77;;;;;;;13.29;51.62;102525.06;5058488;28;20690;-66
2022/03/16 10:40:49;;;;;;;13.47;9.90;;;;;;;13.87;50.16;102523.94;5058358;28;20422;-67
2022/03/16 10:48:59;;;;;;;16.50;10.47;;;;;;;13.54;50.29;102525.72;5058468;28;20411;-66
2022/03/16 10:51:24;;;;;;;14.60;10.90;;;;;;;14.04;49.45;102529.59;5057744;28;20395;-66
2022/03/16 10:53:52;;;;;;;15.93;10.27;;;;;;;13.30;50.74;102531.16;5058318;28;20397;-66
2022/03/16 10:56:18;;;;;;;15.37;10.27;;;;;;;13.30;51.29;102539.94;5057547;28;20216;-66
2022/03/16 10:58:49;;;;;;;13.37;9.90;;;;;;;13.27;50.66;102536.34;5057777;28;20474;-65
2022/03/16 11:01:15;;;;;;;12.80;10.30;;;;;;;13.77;49.60;102528.97;5057481;28;20438;-65
2022/03/16 11:03:44;;;;;;;15.30;10.87;;;;;;;12.53;53.35;102534.19;5058337;28;20409;-65
2022/03/16 11:06:09;;;;;;;15.30;11.37;;;;;;;13.85;50.54;102529.13;5058683;28;20508;-66
2022/03/16 11:08:37;;;;;;;15.93;11.40;;;;;;;13.74;50.74;102534.13;5057209;28;20387;-67
2022/03/16 11:13:27;;;;;;;18.53;11.20;;;;;;;14.07;49.88;102522.72;5057231;28;20528;-66
2022/03/16 11:13:49;;;;;;;16.80;12.60;;;;;;;13.56;52.08;102531.03;5058205;28;20422;-67
2022/03/16 11:16:15;;;;;;;14.50;11.30;;;;;;;13.80;51.02;102529.03;5057935;28;20438;-68
2022/03/16 11:18:42;;;;;;;12.60;8.60;;;;;;;12.27;52.23;102532.59;5057621;28;20412;-65